createdAt,value
2018-04-11T00:00:56.596Z,22.10
2018-04-11T00:01:56.561Z,21.00
2018-04-11T00:02:56.561Z,22.40
2018-04-11T00:03:56.556Z,22.60
2018-04-11T00:04:56.526Z,21.80
2018-04-11T00:05:56.507Z,22.20
2018-04-11T00:06:56.498Z,22.60
2018-04-11T00:07:56.513Z,22.40
2018-04-11T00:08:56.518Z,22.70
2018-04-11T00:09:56.533Z,23.40
2018-04-11T00:10:56.442Z,22.90
2018-04-11T00:11:56.429Z,23.40
2018-04-11T00:12:56.419Z,23.10
2018-04-11T00:13:56.412Z,24.10
2018-04-11T00:14:56.392Z,23.20
2018-04-11T00:15:56.371Z,21.80
2018-04-11T00:16:56.361Z,22.30
2018-04-11T00:17:56.380Z,21.70
2018-04-11T00:18:56.346Z,19.90
2018-04-11T00:19:56.328Z,21.20
2018-04-11T00:20:56.300Z,21.30
2018-04-11T00:21:56.293Z,21.40
2018-04-11T00:22:56.289Z,21.40
2018-04-11T00:23:56.263Z,20.80
2018-04-11T00:24:56.254Z,24.30
2018-04-11T00:25:56.236Z,25.00
2018-04-11T00:26:56.241Z,25.40
2018-04-11T00:27:56.238Z,26.30
2018-04-11T00:28:56.224Z,26.30
2018-04-11T00:29:56.173Z,28.60
2018-04-11T00:30:56.159Z,29.40
2018-04-11T00:31:56.177Z,30.20
2018-04-11T00:32:56.134Z,31.20
2018-04-11T00:33:56.143Z,30.90
2018-04-11T00:34:56.168Z,31.50
2018-04-11T00:35:56.087Z,30.90
2018-04-11T00:36:56.084Z,32.10
2018-04-11T00:37:56.086Z,32.70
2018-04-11T00:38:56.044Z,33.80
2018-04-11T00:39:56.026Z,34.70
2018-04-11T00:40:56.013Z,35.20
2018-04-11T00:41:56.016Z,35.30
2018-04-11T00:42:56.017Z,36.30
2018-04-11T00:43:55.978Z,35.60
2018-04-11T00:44:55.958Z,36.30
2018-04-11T00:45:55.943Z,35.60
2018-04-11T00:46:55.953Z,36.90
2018-04-11T00:47:55.949Z,37.00
2018-04-11T00:48:55.912Z,37.90
2018-04-11T00:49:55.886Z,36.30
2018-04-11T00:50:55.875Z,37.50
2018-04-11T00:51:55.874Z,38.80
2018-04-11T00:52:55.860Z,38.60
2018-04-11T00:53:55.828Z,36.70
2018-04-11T00:54:55.814Z,37.10
2018-04-11T00:55:55.807Z,38.80
2018-04-11T00:56:55.819Z,37.90
2018-04-11T00:57:55.778Z,38.40
2018-04-11T00:58:55.757Z,39.20
2018-04-11T00:59:55.741Z,38.90
2018-04-11T01:00:55.725Z,39.70
2018-04-11T01:01:55.736Z,38.00
2018-04-11T01:02:55.730Z,41.20
2018-04-11T01:03:55.684Z,40.30
2018-04-11T01:04:55.669Z,40.20
2018-04-11T01:05:55.666Z,37.70
2018-04-11T01:06:55.664Z,39.30
2018-04-11T01:07:55.630Z,40.00
2018-04-11T01:08:55.609Z,39.80
2018-04-11T01:09:55.595Z,40.40
2018-04-11T01:10:55.596Z,40.00
2018-04-11T01:11:55.581Z,39.20
2018-04-11T01:12:55.576Z,39.20
2018-04-11T01:13:55.538Z,38.30
2018-04-11T01:14:55.581Z,39.10
2018-04-11T01:15:55.520Z,39.20
2018-04-11T01:16:55.527Z,39.20
2018-04-11T01:17:55.495Z,38.70
2018-04-11T01:18:55.477Z,38.60
2018-04-11T01:19:55.456Z,40.10
2018-04-11T01:20:55.464Z,40.10
2018-04-11T01:21:55.445Z,39.30
2018-04-11T01:22:55.457Z,39.50
2018-04-11T01:23:55.393Z,39.60
2018-04-11T01:24:55.383Z,39.60
2018-04-11T01:25:55.393Z,40.10
2018-04-11T01:26:55.401Z,39.10
2018-04-11T01:27:55.340Z,39.60
2018-04-11T01:28:55.327Z,38.70
2018-04-11T01:29:55.315Z,39.40
2018-04-11T01:30:55.304Z,39.70
2018-04-11T01:31:55.277Z,40.90
2018-04-11T01:32:55.265Z,40.30
2018-04-11T01:33:55.248Z,39.70
2018-04-11T01:34:55.250Z,39.70
2018-04-11T01:35:55.226Z,39.30
2018-04-11T01:36:55.211Z,40.30
2018-04-11T01:37:55.188Z,38.90
2018-04-11T01:38:55.178Z,40.40
2018-04-11T01:39:55.180Z,38.80
2018-04-11T01:40:55.158Z,39.60
2018-04-11T01:41:55.130Z,38.60
2018-04-11T01:42:55.132Z,38.60
2018-04-11T01:43:55.109Z,39.50
2018-04-11T01:44:55.103Z,40.10
2018-04-11T01:45:55.089Z,38.80
2018-04-11T01:46:55.055Z,38.90
2018-04-11T01:47:55.047Z,40.60
2018-04-11T01:48:55.031Z,38.10
2018-04-11T01:49:55.033Z,38.90
2018-04-11T01:50:54.999Z,38.50
2018-04-11T01:51:54.982Z,39.80
2018-04-11T01:52:54.968Z,38.00
2018-04-11T01:53:54.969Z,39.30
2018-04-11T01:54:54.974Z,39.40
2018-04-11T01:55:54.926Z,41.10
2018-04-11T01:56:54.906Z,39.80
2018-04-11T01:57:55.024Z,39.80
2018-04-11T01:58:54.898Z,38.30
2018-04-11T01:59:54.876Z,39.00
2018-04-11T02:00:54.847Z,36.60
2018-04-11T02:01:54.835Z,39.40
2018-04-11T02:02:54.821Z,38.00
2018-04-11T02:03:54.817Z,39.50
2018-04-11T02:04:54.815Z,38.30
2018-04-11T02:05:54.778Z,39.00
2018-04-11T02:06:54.757Z,40.20
2018-04-11T02:07:54.755Z,38.10
2018-04-11T02:08:54.753Z,39.90
2018-04-11T02:09:54.722Z,39.50
2018-04-11T02:10:54.703Z,37.70
2018-04-11T02:11:54.685Z,38.60
2018-04-11T02:12:54.703Z,38.10
2018-04-11T02:13:54.677Z,38.80
2018-04-11T02:14:54.681Z,38.10
2018-04-11T02:15:54.638Z,38.80
2018-04-11T02:16:54.622Z,39.70
2018-04-11T02:17:54.640Z,38.80
2018-04-11T02:18:54.584Z,39.00
2018-04-11T02:19:54.591Z,40.20
2018-04-11T02:20:54.552Z,39.40
2018-04-11T02:21:54.543Z,38.80
2018-04-11T02:22:54.548Z,39.20
2018-04-11T02:23:54.542Z,37.70
2018-04-11T02:24:54.487Z,39.20
2018-04-11T02:25:54.473Z,38.70
2018-04-11T02:26:54.483Z,38.50
2018-04-11T02:27:54.468Z,39.10
2018-04-11T02:28:54.430Z,39.40
2018-04-11T02:29:54.422Z,40.20
2018-04-11T02:30:54.420Z,40.50
2018-04-11T02:31:54.426Z,39.70
2018-04-11T02:32:54.399Z,39.40
2018-04-11T02:33:54.356Z,39.50
2018-04-11T02:34:54.341Z,38.50
2018-04-11T02:35:54.333Z,39.30
2018-04-11T02:36:54.332Z,40.10
2018-04-11T02:37:54.301Z,38.90
2018-04-11T02:38:54.305Z,39.50
2018-04-11T02:39:54.257Z,39.20
2018-04-11T02:40:54.271Z,39.80
2018-04-11T02:41:54.259Z,38.50
2018-04-11T02:42:54.217Z,40.60
2018-04-11T02:43:54.218Z,38.10
2018-04-11T02:44:54.267Z,39.50
2018-04-11T02:45:54.185Z,37.50
2018-04-11T02:46:54.186Z,40.00
2018-04-11T02:47:54.143Z,39.30
2018-04-11T02:48:54.168Z,37.10
2018-04-11T02:49:54.137Z,37.10
2018-04-11T02:50:54.112Z,38.60
2018-04-11T02:51:54.087Z,38.90
2018-04-11T02:52:54.060Z,37.30
2018-04-11T02:53:54.055Z,39.50
2018-04-11T02:54:54.053Z,36.50
2018-04-11T02:55:54.012Z,36.70
2018-04-11T02:56:54.000Z,37.50
2018-04-11T02:57:53.986Z,37.70
2018-04-11T02:58:53.982Z,35.90
2018-04-11T02:59:53.965Z,35.10
2018-04-11T03:00:53.984Z,36.20
2018-04-11T03:01:53.951Z,36.60
2018-04-11T03:02:53.972Z,37.90
2018-04-11T03:03:53.970Z,37.30
2018-04-11T03:04:53.908Z,38.20
2018-04-11T03:05:53.861Z,36.50
2018-04-11T03:06:53.843Z,36.70
2018-04-11T03:07:53.835Z,36.60
2018-04-11T03:08:53.831Z,36.00
2018-04-11T03:09:53.795Z,36.90
2018-04-11T03:10:53.781Z,36.40
2018-04-11T03:11:53.785Z,38.30
2018-04-11T03:12:53.772Z,36.70
2018-04-11T03:13:53.778Z,35.60
2018-04-11T03:14:53.793Z,36.50
2018-04-11T03:15:54.323Z,36.40
2018-04-11T03:16:53.689Z,35.30
2018-04-11T03:17:53.683Z,36.20
2018-04-11T03:18:53.672Z,38.80
2018-04-11T03:19:53.637Z,35.90
2018-04-11T03:20:53.627Z,37.80
2018-04-11T03:21:53.656Z,36.70
2018-04-11T03:22:53.595Z,36.80
2018-04-11T03:23:53.587Z,36.70
2018-04-11T03:24:53.589Z,36.40
2018-04-11T03:25:53.543Z,35.80
2018-04-11T03:26:53.578Z,36.30
2018-04-11T03:27:53.516Z,36.70
2018-04-11T03:28:53.491Z,37.60
2018-04-11T03:29:53.481Z,36.20
2018-04-11T03:30:53.481Z,37.10
2018-04-11T03:31:53.500Z,36.20
2018-04-11T03:32:53.484Z,37.00
2018-04-11T03:33:53.440Z,35.80
2018-04-11T03:34:53.486Z,35.70
2018-04-11T03:35:53.420Z,36.90
2018-04-11T03:36:53.420Z,36.50
2018-04-11T03:37:53.359Z,35.70
2018-04-11T03:38:53.372Z,36.10
2018-04-11T03:39:53.344Z,34.90
2018-04-11T03:40:53.367Z,35.50
2018-04-11T03:41:53.353Z,35.60
2018-04-11T03:42:53.278Z,35.20
2018-04-11T03:43:53.269Z,35.80
2018-04-11T03:44:53.278Z,34.40
2018-04-11T03:45:53.280Z,35.00
2018-04-11T03:46:53.207Z,35.60
2018-04-11T03:47:53.232Z,34.70
2018-04-11T03:48:53.199Z,34.80
2018-04-11T03:49:53.214Z,34.50
2018-04-11T03:50:53.145Z,34.50
2018-04-11T03:51:53.135Z,33.10
2018-04-11T03:52:53.118Z,33.60
2018-04-11T03:53:53.117Z,33.50
2018-04-11T03:54:53.082Z,34.10
2018-04-11T03:55:53.074Z,34.90
2018-04-11T03:56:53.092Z,35.00
2018-04-11T03:57:53.048Z,37.30
2018-04-11T03:58:53.047Z,35.60
2018-04-11T03:59:52.994Z,34.90
2018-04-11T04:00:53.068Z,35.10
2018-04-11T04:01:53.041Z,34.40
2018-04-11T04:02:52.974Z,34.40
2018-04-11T04:03:52.938Z,34.70
2018-04-11T04:04:52.935Z,34.40
2018-04-11T04:05:52.931Z,35.30
2018-04-11T04:06:52.914Z,32.00
2018-04-11T04:07:52.869Z,34.70
2018-04-11T04:08:52.848Z,33.80
2018-04-11T04:09:52.858Z,34.30
2018-04-11T04:10:52.840Z,34.50
2018-04-11T04:11:52.819Z,33.80
2018-04-11T04:12:52.783Z,34.20
2018-04-11T04:13:52.804Z,33.90
2018-04-11T04:14:52.781Z,33.70
2018-04-11T04:15:52.779Z,34.10
2018-04-11T04:16:52.725Z,33.50
2018-04-11T04:17:52.710Z,33.80
2018-04-11T04:18:52.732Z,33.60
2018-04-11T04:19:52.721Z,33.50
2018-04-11T04:20:52.695Z,33.00
2018-04-11T04:21:52.648Z,33.00
2018-04-11T04:22:52.654Z,32.20
2018-04-11T04:23:52.634Z,34.20
2018-04-11T04:24:52.609Z,32.90
2018-04-11T04:25:52.613Z,33.60
2018-04-11T04:26:52.571Z,33.10
2018-04-11T04:27:52.568Z,32.80
2018-04-11T04:28:52.546Z,32.70
2018-04-11T04:29:52.545Z,33.50
2018-04-11T04:30:52.512Z,33.70
2018-04-11T04:31:52.494Z,33.20
2018-04-11T04:32:52.511Z,32.10
2018-04-11T04:33:52.445Z,33.60
2018-04-11T04:34:52.450Z,31.30
2018-04-11T04:35:52.423Z,32.30
2018-04-11T04:36:52.409Z,32.10
2018-04-11T04:37:52.389Z,32.80
2018-04-11T04:38:52.444Z,33.00
2018-04-11T04:39:52.421Z,33.00
2018-04-11T04:40:52.345Z,32.30
2018-04-11T04:41:52.360Z,32.60
2018-04-11T04:42:52.357Z,32.00
2018-04-11T04:43:52.328Z,31.80
2018-04-11T04:44:52.296Z,32.40
2018-04-11T04:45:52.293Z,33.80
2018-04-11T04:46:52.252Z,34.50
2018-04-11T04:47:52.217Z,31.80
2018-04-11T04:48:52.213Z,31.40
2018-04-11T04:49:52.187Z,31.20
2018-04-11T04:50:52.189Z,32.80
2018-04-11T04:51:52.183Z,32.30
2018-04-11T04:52:52.142Z,32.40
2018-04-11T04:53:52.144Z,32.90
2018-04-11T04:54:52.132Z,33.50
2018-04-11T04:55:52.108Z,30.00
2018-04-11T04:56:52.080Z,31.40
2018-04-11T04:57:52.064Z,31.50
2018-04-11T04:58:52.073Z,31.00
2018-04-11T04:59:52.035Z,30.60
2018-04-11T05:00:52.052Z,32.90
2018-04-11T05:01:51.995Z,30.70
2018-04-11T05:02:51.993Z,32.10
2018-04-11T05:03:52.002Z,31.10
2018-04-11T05:04:51.960Z,32.30
2018-04-11T05:05:52.090Z,30.60
2018-04-11T05:06:51.903Z,31.00
2018-04-11T05:07:51.911Z,30.80
2018-04-11T05:08:51.913Z,30.30
2018-04-11T05:09:51.895Z,32.20
2018-04-11T05:10:51.841Z,30.80
2018-04-11T05:11:51.823Z,31.20
2018-04-11T05:12:51.819Z,32.50
2018-04-11T05:13:51.803Z,31.30
2018-04-11T05:14:51.779Z,31.50
2018-04-11T05:15:51.775Z,30.20
2018-04-11T05:16:51.750Z,30.00
2018-04-11T05:17:51.756Z,29.60
2018-04-11T05:18:51.732Z,29.60
2018-04-11T05:19:51.696Z,30.20
2018-04-11T05:20:51.685Z,29.70
2018-04-11T05:21:51.670Z,31.90
2018-04-11T05:22:51.660Z,31.30
2018-04-11T05:23:51.638Z,30.70
2018-04-11T05:24:51.626Z,31.40
2018-04-11T05:25:51.590Z,31.60
2018-04-11T05:26:51.599Z,31.30
2018-04-11T05:27:51.561Z,31.40
2018-04-11T05:28:51.542Z,31.40
2018-04-11T05:29:51.551Z,31.50
2018-04-11T05:30:51.515Z,30.30
2018-04-11T05:31:51.504Z,31.80
2018-04-11T05:32:51.495Z,31.90
2018-04-11T05:33:51.481Z,31.50
2018-04-11T05:34:51.448Z,31.40
2018-04-11T05:35:51.427Z,32.10
2018-04-11T05:36:51.420Z,31.20
2018-04-11T05:37:51.402Z,32.10
2018-04-11T05:38:51.433Z,30.90
2018-04-11T05:39:51.367Z,31.30
2018-04-11T05:40:51.355Z,30.50
2018-04-11T05:41:51.339Z,30.70
2018-04-11T05:42:51.340Z,31.00
2018-04-11T05:43:51.324Z,29.90
2018-04-11T05:44:51.281Z,30.40
2018-04-11T05:45:51.255Z,29.50
2018-04-11T05:46:51.238Z,30.40
2018-04-11T05:47:51.260Z,30.40
2018-04-11T05:48:51.214Z,30.20
2018-04-11T05:49:51.194Z,30.70
2018-04-11T05:50:51.189Z,30.10
2018-04-11T05:51:51.193Z,30.80
2018-04-11T05:52:51.231Z,31.60
2018-04-11T05:53:51.170Z,31.20
2018-04-11T05:54:51.113Z,30.60
2018-04-11T05:55:51.114Z,29.00
2018-04-11T05:56:51.132Z,30.30
2018-04-11T05:57:51.119Z,30.50
2018-04-11T05:58:51.122Z,27.80
2018-04-11T05:59:51.098Z,30.00
2018-04-11T06:00:51.150Z,29.80
2018-04-11T06:01:51.082Z,29.00
2018-04-11T06:02:51.063Z,30.80
2018-04-11T06:03:51.030Z,30.90
2018-04-11T06:04:51.071Z,29.60
2018-04-11T06:05:50.960Z,54.40
2018-04-11T06:06:50.930Z,31.10
2018-04-11T06:07:50.912Z,30.20
2018-04-11T06:08:50.884Z,29.20
2018-04-11T06:09:50.878Z,28.00
2018-04-11T06:10:51.002Z,29.60
2018-04-11T06:11:50.866Z,29.90
2018-04-11T06:12:50.834Z,30.30
2018-04-11T06:13:50.807Z,28.90
2018-04-11T06:14:50.801Z,28.20
2018-04-11T06:15:50.778Z,29.90
2018-04-11T06:16:50.774Z,29.70
2018-04-11T06:17:50.782Z,28.70
2018-04-11T06:18:50.750Z,29.10
2018-04-11T06:19:50.743Z,29.40
2018-04-11T06:20:50.713Z,28.90
2018-04-11T06:21:50.702Z,28.50
2018-04-11T06:22:50.717Z,29.30
2018-04-11T06:23:50.693Z,29.90
2018-04-11T06:24:50.633Z,28.50
2018-04-11T06:25:50.653Z,28.30
2018-04-11T06:26:50.649Z,25.80
2018-04-11T06:27:50.650Z,27.70
2018-04-11T06:28:50.606Z,27.20
2018-04-11T06:29:50.620Z,27.40
2018-04-11T06:30:50.631Z,28.30
2018-04-11T06:31:50.557Z,27.50
2018-04-11T06:32:50.612Z,27.50
2018-04-11T06:33:50.550Z,26.80
2018-04-11T06:34:50.574Z,27.10
2018-04-11T06:35:50.539Z,27.70
2018-04-11T06:36:51.086Z,26.20
2018-04-11T06:37:50.572Z,26.40
2018-04-11T06:38:50.447Z,27.60
2018-04-11T06:39:51.034Z,27.20
2018-04-11T06:40:50.437Z,27.40
2018-04-11T06:41:50.369Z,26.10
2018-04-11T06:42:50.388Z,26.70
2018-04-11T06:43:50.421Z,26.00
2018-04-11T06:44:50.350Z,25.60
2018-04-11T06:45:50.325Z,26.30
2018-04-11T06:46:50.329Z,26.50
2018-04-11T06:47:50.371Z,25.80
2018-04-11T06:48:50.270Z,28.10
2018-04-11T06:49:50.269Z,27.50
2018-04-11T06:50:50.254Z,27.90
2018-04-11T06:51:50.282Z,27.10
2018-04-11T06:52:50.213Z,27.00
2018-04-11T06:53:50.194Z,26.30
2018-04-11T06:54:50.193Z,27.00
2018-04-11T06:55:50.188Z,26.80
2018-04-11T06:56:50.169Z,27.30
2018-04-11T06:57:50.227Z,28.60
2018-04-11T06:58:50.151Z,27.00
2018-04-11T06:59:50.183Z,27.30
2018-04-11T07:00:50.117Z,26.20
2018-04-11T07:01:50.111Z,25.90
2018-04-11T07:02:50.116Z,26.70
2018-04-11T07:03:51.696Z,27.30
2018-04-11T07:04:52.844Z,27.10
2018-04-11T07:06:50.065Z,26.10
2018-04-11T07:07:50.293Z,26.00
2018-04-11T07:08:50.032Z,27.40
2018-04-11T07:09:50.054Z,26.90
2018-04-11T07:10:50.090Z,26.40
2018-04-11T07:11:50.826Z,26.00
2018-04-11T07:12:50.009Z,26.70
2018-04-11T07:13:49.950Z,27.50
2018-04-11T07:14:49.949Z,25.50
2018-04-11T07:15:49.991Z,25.90
2018-04-11T07:16:49.925Z,25.80
2018-04-11T07:17:49.851Z,25.70
2018-04-11T07:18:49.854Z,25.70
2018-04-11T07:19:49.845Z,25.60
2018-04-11T07:20:49.853Z,26.00
2018-04-11T07:21:49.822Z,26.50
2018-04-11T07:22:49.778Z,25.40
2018-04-11T07:23:49.762Z,26.10
2018-04-11T07:24:49.752Z,38.40
2018-04-11T07:25:49.749Z,27.20
2018-04-11T07:26:49.707Z,25.50
2018-04-11T07:27:49.717Z,27.00
2018-04-11T07:28:49.704Z,26.80
2018-04-11T07:29:49.688Z,25.50
2018-04-11T07:30:49.648Z,26.50
2018-04-11T07:31:50.804Z,26.20
2018-04-11T07:32:49.696Z,24.80
2018-04-11T07:33:49.669Z,26.00
2018-04-11T07:34:49.605Z,26.10
2018-04-11T07:35:49.633Z,26.50
2018-04-11T07:36:49.591Z,25.50
2018-04-11T07:37:49.536Z,26.00
2018-04-11T07:38:49.547Z,25.80
2018-04-11T07:39:50.369Z,26.90
2018-04-11T07:40:49.504Z,26.20
2018-04-11T07:41:49.589Z,24.50
2018-04-11T07:42:49.490Z,26.60
2018-04-11T07:43:49.496Z,26.20
2018-04-11T07:44:49.570Z,25.40
2018-04-11T07:45:49.520Z,25.00
2018-04-11T07:46:49.416Z,24.90
2018-04-11T07:47:49.463Z,25.20
2018-04-11T07:48:50.659Z,25.20
2018-04-11T07:49:49.407Z,25.70
2018-04-11T07:50:49.379Z,28.00
2018-04-11T07:51:49.363Z,25.30
2018-04-11T07:52:49.366Z,24.70
2018-04-11T07:53:49.343Z,25.20
2018-04-11T07:54:49.366Z,24.50
2018-04-11T07:55:49.411Z,24.60
2018-04-11T07:56:49.474Z,25.80
2018-04-11T07:57:49.354Z,24.80
2018-04-11T07:58:49.310Z,24.30
2018-04-11T07:59:49.217Z,26.50
2018-04-11T08:00:49.277Z,25.00
2018-04-11T08:01:49.200Z,24.70
2018-04-11T08:02:49.220Z,25.00
2018-04-11T08:03:49.200Z,26.80
2018-04-11T08:04:49.183Z,26.00
2018-04-11T08:05:49.137Z,25.30
2018-04-11T08:06:49.154Z,25.30
2018-04-11T08:07:49.130Z,25.40
2018-04-11T08:08:49.213Z,24.10
2018-04-11T08:09:49.149Z,26.20
2018-04-11T08:10:49.159Z,24.90
2018-04-11T08:11:49.072Z,24.50
2018-04-11T08:12:49.046Z,24.00
2018-04-11T08:13:49.198Z,25.40
2018-04-11T08:14:49.015Z,25.70
2018-04-11T08:15:49.020Z,23.90
2018-04-11T08:16:48.995Z,24.20
2018-04-11T08:17:48.962Z,24.50
2018-04-11T08:18:48.943Z,23.80
2018-04-11T08:19:48.924Z,24.10
2018-04-11T08:20:48.932Z,23.40
2018-04-11T08:21:48.899Z,23.90
2018-04-11T08:22:48.947Z,24.70
2018-04-11T08:23:48.890Z,26.10
2018-04-11T08:24:50.098Z,24.90
2018-04-11T08:25:48.904Z,23.10
2018-04-11T08:26:48.845Z,23.20
2018-04-11T08:27:48.826Z,24.30
2018-04-11T08:28:48.792Z,23.10
2018-04-11T08:29:48.918Z,23.60
2018-04-11T08:30:48.902Z,23.80
2018-04-11T08:31:48.756Z,24.80
2018-04-11T08:32:48.734Z,24.00
2018-04-11T08:33:48.826Z,25.10
2018-04-11T08:34:48.822Z,23.30
2018-04-11T08:35:48.821Z,24.10
2018-04-11T08:36:48.709Z,23.50
2018-04-11T08:37:48.678Z,24.30
2018-04-11T08:38:48.679Z,24.20
2018-04-11T08:39:48.661Z,23.70
2018-04-11T08:40:48.666Z,23.50
2018-04-11T08:41:48.647Z,22.90
2018-04-11T08:42:48.609Z,22.70
2018-04-11T08:43:48.617Z,23.10
2018-04-11T08:44:48.607Z,22.20
2018-04-11T08:45:48.601Z,23.00
2018-04-11T08:46:48.539Z,22.10
2018-04-11T08:47:48.534Z,23.00
2018-04-11T08:48:48.545Z,23.10
2018-04-11T08:49:49.170Z,23.00
2018-04-11T08:50:48.490Z,22.40
2018-04-11T08:51:48.529Z,22.60
2018-04-11T08:52:48.560Z,23.10
2018-04-11T08:53:48.500Z,21.90
2018-04-11T08:54:48.469Z,22.90
2018-04-11T08:55:48.469Z,22.30
2018-04-11T08:56:48.404Z,22.60
2018-04-11T08:57:48.394Z,22.30
2018-04-11T08:58:48.380Z,23.00
2018-04-11T08:59:48.384Z,23.20
2018-04-11T09:00:48.386Z,22.70
2018-04-11T09:01:48.437Z,22.80
2018-04-11T09:02:48.365Z,23.40
2018-04-11T09:03:48.329Z,23.30
2018-04-11T09:04:48.329Z,23.10
2018-04-11T09:05:48.325Z,22.50
2018-04-11T09:06:48.313Z,23.20
2018-04-11T09:07:48.253Z,23.10
2018-04-11T09:08:48.273Z,22.60
2018-04-11T09:09:48.293Z,23.10
2018-04-11T09:10:48.277Z,23.10
2018-04-11T09:11:48.256Z,23.00
2018-04-11T09:12:48.176Z,22.70
2018-04-11T09:13:48.174Z,22.10
2018-04-11T09:14:48.170Z,24.50
2018-04-11T09:15:48.184Z,37.40
2018-04-11T09:16:48.125Z,25.30
2018-04-11T09:17:48.165Z,23.10
2018-04-11T09:18:48.164Z,24.00
2018-04-11T09:19:48.154Z,23.40
2018-04-11T09:20:48.232Z,23.10
2018-04-11T09:21:48.099Z,23.50
2018-04-11T09:22:48.055Z,22.60
2018-04-11T09:23:48.039Z,22.80
2018-04-11T09:24:48.069Z,23.60
2018-04-11T09:25:48.136Z,22.00
2018-04-11T09:26:48.056Z,23.50
2018-04-11T09:27:48.148Z,21.30
2018-04-11T09:28:48.023Z,23.60
2018-04-11T09:29:47.992Z,23.40
2018-04-11T09:30:47.992Z,22.40
2018-04-11T09:31:47.984Z,23.10
2018-04-11T09:32:47.969Z,23.10
2018-04-11T09:33:47.973Z,22.80
2018-04-11T09:34:47.972Z,22.10
2018-04-11T09:35:47.901Z,23.00
2018-04-11T09:36:47.915Z,23.40
2018-04-11T09:37:47.862Z,22.00
2018-04-11T09:38:47.961Z,21.60
2018-04-11T09:39:47.943Z,22.30
2018-04-11T09:40:47.823Z,21.80
2018-04-11T09:41:47.824Z,22.80
2018-04-11T09:42:47.824Z,23.20
2018-04-11T09:43:48.462Z,23.10
2018-04-11T09:44:47.783Z,22.90
2018-04-11T09:45:47.768Z,22.70
2018-04-11T09:46:47.771Z,22.70
2018-04-11T09:47:47.734Z,23.30
2018-04-11T09:48:47.715Z,22.80
2018-04-11T09:49:47.710Z,24.40
2018-04-11T09:50:47.895Z,23.50
2018-04-11T09:51:47.700Z,23.30
2018-04-11T09:52:47.696Z,22.90
2018-04-11T09:53:47.670Z,22.40
2018-04-11T09:54:47.632Z,24.60
2018-04-11T09:55:47.656Z,23.40
2018-04-11T09:56:47.651Z,24.50
2018-04-11T09:57:47.629Z,23.10
2018-04-11T09:58:47.601Z,24.50
2018-04-11T09:59:47.575Z,24.20
2018-04-11T10:00:47.638Z,22.90
2018-04-11T10:01:47.574Z,27.70
2018-04-11T10:02:47.595Z,24.30
2018-04-11T10:03:47.569Z,23.00
2018-04-11T10:04:47.578Z,24.40
2018-04-11T10:05:47.520Z,24.50
2018-04-11T10:06:47.515Z,23.30
2018-04-11T10:07:47.498Z,23.80
2018-04-11T10:08:47.502Z,23.30
2018-04-11T10:09:47.526Z,26.70
2018-04-11T10:10:47.464Z,22.60
2018-04-11T10:11:47.468Z,22.70
2018-04-11T10:12:47.431Z,23.10
2018-04-11T10:13:47.425Z,23.50
2018-04-11T10:14:47.397Z,23.20
2018-04-11T10:15:47.455Z,24.00
2018-04-11T10:16:47.421Z,22.20
2018-04-11T10:17:47.373Z,22.70
2018-04-11T10:18:47.411Z,22.90
2018-04-11T10:19:47.373Z,22.90
2018-04-11T10:20:47.320Z,23.70
2018-04-11T10:21:47.341Z,23.90
2018-04-11T10:22:47.303Z,24.30
2018-04-11T10:23:47.346Z,24.30
2018-04-11T10:24:48.557Z,23.70
2018-04-11T10:25:47.250Z,23.20
2018-04-11T10:26:47.252Z,21.60
2018-04-11T10:27:47.334Z,23.00
2018-04-11T10:28:47.244Z,21.40
2018-04-11T10:29:47.252Z,22.50
2018-04-11T10:30:47.297Z,21.10
2018-04-11T10:31:47.248Z,22.80
2018-04-11T10:32:48.020Z,22.30
2018-04-11T10:33:47.216Z,22.90
2018-04-11T10:34:47.200Z,24.50
2018-04-11T10:35:47.163Z,23.80
2018-04-11T10:36:47.232Z,23.60
2018-04-11T10:37:47.125Z,23.60
2018-04-11T10:38:47.140Z,22.10
2018-04-11T10:39:50.620Z,23.30
2018-04-11T10:40:47.158Z,21.30
2018-04-11T10:41:47.191Z,23.10
2018-04-11T10:42:47.070Z,23.70
2018-04-11T10:43:47.048Z,23.10
2018-04-11T10:44:47.048Z,23.90
2018-04-11T10:45:47.052Z,22.50
2018-04-11T10:46:47.040Z,22.90
2018-04-11T10:47:46.997Z,22.50
2018-04-11T10:48:46.984Z,22.80
2018-04-11T10:49:47.082Z,22.00
2018-04-11T10:50:47.006Z,22.50
2018-04-11T10:51:46.969Z,21.90
2018-04-11T10:52:47.030Z,21.20
2018-04-11T10:53:46.936Z,21.80
2018-04-11T10:54:47.052Z,20.50
2018-04-11T10:55:46.947Z,21.40
2018-04-11T10:56:46.912Z,21.70
2018-04-11T10:57:46.924Z,22.40
2018-04-11T10:58:46.889Z,21.90
2018-04-11T10:59:47.033Z,21.70
2018-04-11T11:00:46.919Z,21.00
2018-04-11T11:01:46.893Z,23.40
2018-04-11T11:02:46.869Z,22.60
2018-04-11T11:03:46.808Z,22.60
2018-04-11T11:04:46.858Z,22.20
2018-04-11T11:05:46.803Z,22.10
2018-04-11T11:06:47.622Z,22.20
2018-04-11T11:07:46.818Z,21.10
2018-04-11T11:08:46.838Z,22.60
2018-04-11T11:09:46.772Z,21.20
2018-04-11T11:10:46.753Z,23.30
2018-04-11T11:11:46.868Z,23.30
2018-04-11T11:12:46.738Z,22.50
2018-04-11T11:13:46.827Z,24.10
2018-04-11T11:14:46.741Z,35.20
2018-04-11T11:15:46.736Z,32.00
2018-04-11T11:16:46.732Z,33.70
2018-04-11T11:17:47.613Z,24.30
2018-04-11T11:18:46.671Z,23.60
2018-04-11T11:19:46.663Z,23.80
2018-04-11T11:20:46.765Z,23.80
2018-04-11T11:21:47.364Z,22.40
2018-04-11T11:22:47.122Z,24.60
2018-04-11T11:23:46.831Z,24.20
2018-04-11T11:24:46.589Z,25.00
2018-04-11T11:25:46.673Z,23.60
2018-04-11T11:26:46.618Z,25.00
2018-04-11T11:27:46.635Z,24.70
2018-04-11T11:28:46.537Z,24.70
2018-04-11T11:29:46.574Z,26.10
2018-04-11T11:30:46.526Z,25.40
2018-04-11T11:31:46.497Z,24.50
2018-04-11T11:32:46.464Z,23.70
2018-04-11T11:33:46.478Z,23.60
2018-04-11T11:34:46.539Z,23.20
2018-04-11T11:35:46.460Z,23.60
2018-04-11T11:36:46.448Z,21.80
2018-04-11T11:37:46.502Z,23.10
2018-04-11T11:38:46.427Z,24.60
2018-04-11T11:39:46.440Z,20.60
2018-04-11T11:40:46.444Z,20.50
2018-04-11T11:41:46.374Z,19.80
2018-04-11T11:42:46.417Z,20.60
2018-04-11T11:43:46.409Z,19.90
2018-04-11T11:44:46.369Z,20.90
2018-04-11T11:45:46.425Z,20.40
2018-04-11T11:46:46.367Z,20.80
2018-04-11T11:47:46.357Z,23.20
2018-04-11T11:48:46.347Z,21.40
2018-04-11T11:49:46.311Z,22.70
2018-04-11T11:50:46.277Z,21.90
2018-04-11T11:51:46.356Z,22.30
2018-04-11T11:52:46.295Z,22.20
2018-04-11T11:53:49.083Z,22.40
2018-04-11T11:54:46.344Z,21.10
2018-04-11T11:55:46.671Z,21.50
2018-04-11T11:56:46.537Z,23.00
2018-04-11T11:57:46.312Z,22.50
2018-04-11T11:58:46.327Z,25.50
2018-04-11T11:59:46.181Z,23.80
2018-04-11T12:00:46.167Z,24.80
2018-04-11T12:01:46.167Z,24.30
2018-04-11T12:02:46.146Z,25.70
2018-04-11T12:03:46.210Z,24.90
2018-04-11T12:04:46.250Z,25.80
2018-04-11T12:05:46.320Z,25.70
2018-04-11T12:06:46.138Z,26.20
2018-04-11T12:07:46.221Z,26.20
2018-04-11T12:08:46.097Z,26.80
2018-04-11T12:09:46.068Z,25.90
2018-04-11T12:10:46.092Z,27.20
2018-04-11T12:11:46.062Z,26.50
2018-04-11T12:12:46.043Z,26.90
2018-04-11T12:13:46.045Z,28.00
2018-04-11T12:14:46.082Z,27.10
2018-04-11T12:15:46.051Z,26.60
2018-04-11T12:16:46.068Z,27.30
2018-04-11T12:17:46.052Z,26.70
2018-04-11T12:18:45.975Z,27.80
2018-04-11T12:19:46.037Z,28.40
2018-04-11T12:20:45.991Z,29.80
2018-04-11T12:21:45.953Z,28.20
2018-04-11T12:22:45.938Z,27.60
2018-04-11T12:23:46.022Z,27.70
2018-04-11T12:24:45.928Z,28.10
2018-04-11T12:25:45.924Z,28.10
2018-04-11T12:26:45.983Z,26.60
2018-04-11T12:27:45.908Z,28.00
2018-04-11T12:28:45.954Z,29.50
2018-04-11T12:29:45.886Z,29.40
2018-04-11T12:30:45.855Z,29.10
2018-04-11T12:31:45.845Z,29.80
2018-04-11T12:32:45.895Z,28.70
2018-04-11T12:33:45.839Z,29.90
2018-04-11T12:34:45.872Z,31.00
2018-04-11T12:35:45.815Z,30.80
2018-04-11T12:36:45.784Z,30.50
2018-04-11T12:37:45.824Z,31.50
2018-04-11T12:38:45.790Z,32.10
2018-04-11T12:39:45.836Z,32.30
2018-04-11T12:40:46.650Z,32.00
2018-04-11T12:41:45.727Z,31.40
2018-04-11T12:42:45.732Z,30.70
2018-04-11T12:43:45.758Z,30.60
2018-04-11T12:44:45.739Z,29.90
2018-04-11T12:45:45.715Z,29.90
2018-04-11T12:46:45.812Z,30.40
2018-04-11T12:47:45.672Z,32.10
2018-04-11T12:48:45.676Z,32.40
2018-04-11T12:49:45.670Z,31.00
2018-04-11T12:50:45.681Z,30.60
2018-04-11T12:51:45.709Z,31.00
2018-04-11T12:52:45.682Z,30.10
2018-04-11T12:53:45.651Z,30.00